createdAt,value
2023-01-30T04:41:02.222Z,100.00
2023-01-30T04:44:06.075Z,100.00
2023-01-30T04:47:09.235Z,100.00
2023-01-30T04:50:12.108Z,100.00
2023-01-30T04:53:15.961Z,100.00
2023-01-30T04:56:18.815Z,100.00
2023-01-30T04:59:23.385Z,100.00
2023-01-30T05:02:26.223Z,100.00
2023-01-30T05:05:28.934Z,100.00
2023-01-30T05:08:36.826Z,100.00
2023-01-30T05:11:39.596Z,100.00
2023-01-30T05:14:42.429Z,100.00
2023-01-30T05:17:44.913Z,100.00
2023-01-30T05:20:47.726Z,100.00
2023-01-30T05:23:52.729Z,100.00
2023-01-30T05:26:55.335Z,100.00
2023-01-30T05:29:57.893Z,100.00
2023-01-30T05:33:00.618Z,100.00
2023-01-30T05:36:03.475Z,100.00
2023-01-30T05:39:06.483Z,100.00
2023-01-30T05:42:08.981Z,100.00
2023-01-30T05:45:11.899Z,100.00
2023-01-30T05:48:14.332Z,100.00
2023-01-30T05:51:19.822Z,100.00
2023-01-30T05:54:22.232Z,100.00
2023-01-30T05:57:25.086Z,100.00
2023-01-30T06:00:27.583Z,100.00
2023-01-30T06:03:30.497Z,100.00
2023-01-30T06:06:32.895Z,100.00
2023-01-30T06:09:35.595Z,100.00
2023-01-30T06:12:38.378Z,100.00
2023-01-30T06:15:43.463Z,100.00
2023-01-30T06:18:49.915Z,100.00
2023-01-30T06:21:52.665Z,100.00
2023-01-30T06:24:55.054Z,100.00
2023-01-30T06:27:58.027Z,100.00
2023-01-30T06:31:00.822Z,100.00
2023-01-30T06:34:03.862Z,100.00
2023-01-30T06:37:06.407Z,100.00
2023-01-30T06:40:10.267Z,100.00
2023-01-30T06:43:13.114Z,100.00
2023-01-30T06:46:15.855Z,100.00
2023-01-30T06:49:18.401Z,100.00
2023-01-30T06:52:21.195Z,100.00
2023-01-30T06:55:26.786Z,100.00
2023-01-30T06:58:29.734Z,100.00
2023-01-30T07:01:33.545Z,100.00
2023-01-30T07:04:36.583Z,100.00
2023-01-30T07:07:39.538Z,100.00
2023-01-30T07:10:43.177Z,100.00
2023-01-30T07:13:45.768Z,100.00
2023-01-30T07:16:48.881Z,100.00
2023-01-30T07:19:51.288Z,100.00
2023-01-30T07:22:55.728Z,100.00
2023-01-30T07:25:58.377Z,100.00
2023-01-30T07:29:01.387Z,100.00
2023-01-30T07:32:05.235Z,100.00
2023-01-30T07:35:08.359Z,100.00
2023-01-30T07:38:10.743Z,100.00
2023-01-30T07:41:13.448Z,100.00
2023-01-30T07:44:16.209Z,100.00
2023-01-30T07:47:20.182Z,100.00
2023-01-30T07:50:22.844Z,100.00
2023-01-30T07:53:26.637Z,100.00
2023-01-30T07:56:29.075Z,100.00
2023-01-30T07:59:32.396Z,100.00
2023-01-30T08:02:34.890Z,100.00
2023-01-30T08:05:37.569Z,100.00
2023-01-30T08:08:41.197Z,100.00
2023-01-30T08:11:44.829Z,100.00
2023-01-30T08:14:47.402Z,100.00
2023-01-30T08:17:55.641Z,100.00
2023-01-30T08:21:03.731Z,100.00
2023-01-30T08:24:07.042Z,100.00
2023-01-30T08:27:09.820Z,100.00
2023-01-30T08:30:13.141Z,100.00
2023-01-30T08:33:16.136Z,100.00
2023-01-30T08:36:18.837Z,100.00
2023-01-30T08:39:21.304Z,100.00
2023-01-30T08:42:23.892Z,100.00
2023-01-30T08:45:26.367Z,100.00
2023-01-30T08:48:36.660Z,99.77
2023-01-30T08:51:42.619Z,98.84
2023-01-30T08:54:45.849Z,98.26
2023-01-30T08:57:48.811Z,97.77
2023-01-30T09:00:51.721Z,96.80
2023-01-30T09:03:54.130Z,96.07
2023-01-30T09:06:56.903Z,97.78
2023-01-30T09:09:59.403Z,100.00
2023-01-30T09:13:02.340Z,100.00
2023-01-30T09:16:06.687Z,100.00
2023-01-30T09:19:09.540Z,100.00
2023-01-30T09:22:12.177Z,100.00
2023-01-30T09:25:15.230Z,100.00
2023-01-30T09:28:17.726Z,100.00
2023-01-30T09:31:20.511Z,100.00
2023-01-30T09:34:30.237Z,99.73
2023-01-30T09:37:33.079Z,99.27
2023-01-30T09:40:42.364Z,100.00
2023-01-30T09:43:53.681Z,100.00
2023-01-30T09:47:28.946Z,100.00
2023-01-30T09:51:09.441Z,100.00
2023-01-30T09:54:17.549Z,100.00
2023-01-30T09:57:23.152Z,100.00
2023-01-30T10:00:42.187Z,100.00
2023-01-30T10:04:05.213Z,100.00
2023-01-30T10:07:10.508Z,100.00
2023-01-30T10:10:31.255Z,100.00
2023-01-30T10:13:36.558Z,100.00
2023-01-30T10:16:58.912Z,100.00
2023-01-30T10:20:35.635Z,100.00
2023-01-30T10:23:47.460Z,100.00
2023-01-30T10:26:50.188Z,99.85
2023-01-30T10:29:59.651Z,95.85
2023-01-30T10:33:30.659Z,92.21
2023-01-30T10:36:43.580Z,91.74
2023-01-30T10:40:20.557Z,92.36
2023-01-30T10:43:31.701Z,91.41
2023-01-30T10:46:49.287Z,93.43
2023-01-30T10:50:02.542Z,94.63
2023-01-30T10:53:21.349Z,93.97
2023-01-30T10:56:41.151Z,93.85
2023-01-30T11:00:10.601Z,92.01
2023-01-30T11:03:44.111Z,92.72
2023-01-30T11:06:46.946Z,94.16
2023-01-30T11:09:49.600Z,96.21
2023-01-30T11:12:58.727Z,95.10
2023-01-30T11:16:09.461Z,97.29
2023-01-30T11:19:22.639Z,100.00
2023-01-30T11:22:27.067Z,100.00
2023-01-30T11:25:29.912Z,100.00
2023-01-30T11:28:43.956Z,99.64
2023-01-30T11:31:49.771Z,98.68
2023-01-30T11:35:06.320Z,97.56
2023-01-30T11:38:33.728Z,97.07
2023-01-30T11:41:36.439Z,96.19
2023-01-30T11:44:42.392Z,97.88
2023-01-30T11:48:05.129Z,99.73
2023-01-30T11:51:10.496Z,100.00
2023-01-30T11:54:18.643Z,100.00
2023-01-30T11:57:21.288Z,100.00
2023-01-30T12:00:37.110Z,100.00
2023-01-30T12:03:47.419Z,100.00
2023-01-30T12:07:06.309Z,100.00
2023-01-30T12:10:25.239Z,100.00
2023-01-30T12:13:43.617Z,100.00
2023-01-30T12:17:13.074Z,100.00
2023-01-30T12:20:54.567Z,100.00
2023-01-30T12:24:22.538Z,100.00
2023-01-30T12:28:06.357Z,100.00
2023-01-30T12:31:24.614Z,100.00
2023-01-30T12:34:27.689Z,100.00
2023-01-30T12:37:44.149Z,100.00
2023-01-30T12:41:04.772Z,100.00
2023-01-30T12:45:04.838Z,100.00
2023-01-30T12:48:48.624Z,100.00
2023-01-30T12:52:00.903Z,100.00
2023-01-30T12:55:21.920Z,100.00
2023-01-30T12:58:54.059Z,100.00
2023-01-30T13:02:15.056Z,100.00
2023-01-30T13:05:46.893Z,100.00
2023-01-30T13:09:14.998Z,100.00
2023-01-30T13:12:41.312Z,100.00
2023-01-30T13:16:08.475Z,100.00
2023-01-30T13:19:22.961Z,100.00
2023-01-30T13:22:39.842Z,100.00
2023-01-30T13:25:51.016Z,100.00
2023-01-30T13:28:58.678Z,100.00
2023-01-30T13:32:05.414Z,100.00
2023-01-30T13:35:17.304Z,100.00
2023-01-30T13:38:26.345Z,100.00
2023-01-30T13:41:35.825Z,100.00
2023-01-30T13:44:43.137Z,98.90
2023-01-30T13:47:57.542Z,98.54
2023-01-30T13:51:27.079Z,100.00
2023-01-30T13:55:01.095Z,99.67
2023-01-30T13:58:33.818Z,95.91
2023-01-30T14:02:04.679Z,97.12
2023-01-30T14:05:09.830Z,93.44
2023-01-30T14:08:21.506Z,96.60
2023-01-30T14:11:32.372Z,96.43
2023-01-30T14:14:39.242Z,95.90
2023-01-30T14:17:57.835Z,94.83
2023-01-30T14:21:20.395Z,96.67
2023-01-30T14:24:27.558Z,96.60
2023-01-30T14:27:32.060Z,96.44
2023-01-30T14:30:52.631Z,98.39
2023-01-30T14:33:55.119Z,99.33
2023-01-30T14:36:57.835Z,100.00
2023-01-30T14:40:01.565Z,100.00
2023-01-30T14:43:16.904Z,100.00
2023-01-30T14:46:19.469Z,100.00
2023-01-30T14:49:29.604Z,100.00
2023-01-30T14:52:38.984Z,100.00
2023-01-30T14:55:42.135Z,100.00
2023-01-30T14:59:01.832Z,100.00
2023-01-30T15:02:14.086Z,100.00
2023-01-30T15:05:34.945Z,100.00
2023-01-30T15:08:42.319Z,100.00
2023-01-30T15:11:49.627Z,100.00
2023-01-30T15:15:11.068Z,100.00
2023-01-30T15:18:28.838Z,100.00
2023-01-30T15:21:39.780Z,100.00
2023-01-30T15:24:47.857Z,100.00
2023-01-30T15:28:01.844Z,100.00
2023-01-30T15:31:12.963Z,100.00
2023-01-30T15:34:21.828Z,100.00
2023-01-30T15:37:47.249Z,100.00
2023-01-30T15:40:50.123Z,100.00
2023-01-30T15:44:04.903Z,100.00
2023-01-30T15:47:52.339Z,100.00
2023-01-30T15:50:59.145Z,100.00
2023-01-30T15:54:08.956Z,100.00
2023-01-30T15:57:20.669Z,100.00
2023-01-30T16:00:28.889Z,100.00
2023-01-30T16:03:36.715Z,100.00
2023-01-30T16:06:39.318Z,100.00
2023-01-30T16:09:49.580Z,100.00
2023-01-30T16:13:02.200Z,100.00
2023-01-30T16:16:16.835Z,100.00
2023-01-30T16:19:29.760Z,100.00
2023-01-30T16:22:34.993Z,100.00
2023-01-30T16:25:37.542Z,100.00
2023-01-30T16:28:40.955Z,100.00
2023-01-30T16:31:46.791Z,100.00
2023-01-30T16:34:49.758Z,100.00
2023-01-30T16:37:53.993Z,100.00
2023-01-30T16:40:58.215Z,100.00
2023-01-30T16:44:20.380Z,100.00
